< < Back
Terminal Aerodrome Forecast


Current Version              Previous Versions:   1  2  3  4  5  6  7  8  9  

Terminal Aerodrome Forecast

590
FTUS44 KMOB 021130
TAFMOB
TAF
KMOB 021130Z 0212/0312 00000KT P6SM SCT060
     FM021800 20006KT P6SM SCT050 SCT250
     FM030600 VRB02KT P6SM OVC250=



Latest METAR

214
SAUS80 KWBC 030400
MTRMOB
METAR KMOB 030356Z 23004KT 10SM FEW020 FEW060 OVC250 26/24 A3003 RMK AO2
SLP165 T02560239


USA.gov is the U.S. government's official web portal to all federal, state and local government web resources and services.